Vanport, Pennsylvania
Current Conditions -  °F | °C
As of 10:47 AM on Friday 24 Oct 2014 (Local Time) from KBVI Reporting Station
Clear Clear  
Wind Chill: 50°   Ceiling: Unl
Heat Index: 50°   Visibility: 10mi
Dew Point: 43°   Wind: 0mph
Humidity: 76%   Direction: NA
Pressure: 30.09"   Gusts: NA
Location:  40.7011°N, 80.3605°W
Report Text: KBVI 241447Z 00000KT 10SM CLR 10/06 A3009
Loading
Personal Weather Stations






























Interactive Weather Map
Tropical Storm Tracking
New forecast layout! Learn more

10-Day Weather Forecast

Advertisements
Track Severe Weather on mobile